sensor_id;sensor_type;location;lat;lon;timestamp;temperature;humidity
3842;DHT22;1936;47.074;15.336;2022-08-18T00:01:04;19.40;99.90
3842;DHT22;1936;47.074;15.336;2022-08-18T00:03:10;19.30;99.90
3842;DHT22;1936;47.074;15.336;2022-08-18T00:05:35;19.30;99.90
3842;DHT22;1936;47.074;15.336;2022-08-18T00:07:40;19.20;99.90
3842;DHT22;1936;47.074;15.336;2022-08-18T00:09:48;19.20;99.90
3842;DHT22;1936;47.074;15.336;2022-08-18T00:11:52;19.20;99.90
3842;DHT22;1936;47.074;15.336;2022-08-18T00:13:58;19.10;99.90
3842;DHT22;1936;47.074;15.336;2022-08-18T00:16:02;19.10;99.90
3842;DHT22;1936;47.074;15.336;2022-08-18T00:18:09;19.10;99.90
3842;DHT22;1936;47.074;15.336;2022-08-18T00:20:16;19.00;99.90
3842;DHT22;1936;47.074;15.336;2022-08-18T00:22:23;19.00;99.90
3842;DHT22;1936;47.074;15.336;2022-08-18T00:24:28;19.00;99.90
3842;DHT22;1936;47.074;15.336;2022-08-18T00:26:32;19.00;99.90
3842;DHT22;1936;47.074;15.336;2022-08-18T00:28:38;19.00;99.90
3842;DHT22;1936;47.074;15.336;2022-08-18T00:32:53;19.00;99.90
3842;DHT22;1936;47.074;15.336;2022-08-18T00:35:06;18.90;99.90
3842;DHT22;1936;47.074;15.336;2022-08-18T00:37:14;19.00;99.90
3842;DHT22;1936;47.074;15.336;2022-08-18T00:39:18;19.00;99.90
3842;DHT22;1936;47.074;15.336;2022-08-18T00:41:22;19.20;99.90
3842;DHT22;1936;47.074;15.336;2022-08-18T00:43:31;19.00;99.90
3842;DHT22;1936;47.074;15.336;2022-08-18T00:45:39;19.00;99.90
3842;DHT22;1936;47.074;15.336;2022-08-18T00:47:45;19.10;99.90
3842;DHT22;1936;47.074;15.336;2022-08-18T00:49:51;19.10;99.90
3842;DHT22;1936;47.074;15.336;2022-08-18T00:51:56;19.10;99.90
3842;DHT22;1936;47.074;15.336;2022-08-18T00:54:04;19.10;99.90
3842;DHT22;1936;47.074;15.336;2022-08-18T00:56:11;19.20;99.90
3842;DHT22;1936;47.074;15.336;2022-08-18T00:58:19;19.20;99.90
3842;DHT22;1936;47.074;15.336;2022-08-18T01:00:24;19.20;99.90
3842;DHT22;1936;47.074;15.336;2022-08-18T01:02:35;19.20;99.90
3842;DHT22;1936;47.074;15.336;2022-08-18T01:04:45;19.20;99.90
3842;DHT22;1936;47.074;15.336;2022-08-18T01:06:54;19.40;99.90
3842;DHT22;1936;47.074;15.336;2022-08-18T01:09:00;19.40;99.90
3842;DHT22;1936;47.074;15.336;2022-08-18T01:11:04;19.40;99.90
3842;DHT22;1936;47.074;15.336;2022-08-18T01:13:08;19.50;99.90
3842;DHT22;1936;47.074;15.336;2022-08-18T01:15:14;19.40;99.90
3842;DHT22;1936;47.074;15.336;2022-08-18T01:19:54;19.30;99.90
3842;DHT22;1936;47.074;15.336;2022-08-18T01:22:21;19.10;99.90
3842;DHT22;1936;47.074;15.336;2022-08-18T01:24:34;19.00;99.90
3842;DHT22;1936;47.074;15.336;2022-08-18T01:27:13;19.00;99.90
3842;DHT22;1936;47.074;15.336;2022-08-18T01:29:19;18.80;99.90
3842;DHT22;1936;47.074;15.336;2022-08-18T01:31:31;18.80;99.90
3842;DHT22;1936;47.074;15.336;2022-08-18T01:33:42;18.80;99.90
3842;DHT22;1936;47.074;15.336;2022-08-18T01:35:48;18.70;99.90
3842;DHT22;1936;47.074;15.336;2022-08-18T01:37:52;18.60;99.90
3842;DHT22;1936;47.074;15.336;2022-08-18T01:39:58;18.60;99.90
3842;DHT22;1936;47.074;15.336;2022-08-18T01:42:26;18.60;99.90
3842;DHT22;1936;47.074;15.336;2022-08-18T01:44:30;18.50;99.90
3842;DHT22;1936;47.074;15.336;2022-08-18T01:46:34;18.50;99.90
3842;DHT22;1936;47.074;15.336;2022-08-18T01:48:39;18.40;99.90
3842;DHT22;1936;47.074;15.336;2022-08-18T01:50:43;18.40;99.90
3842;DHT22;1936;47.074;15.336;2022-08-18T01:52:49;18.50;99.90
3842;DHT22;1936;47.074;15.336;2022-08-18T01:54:55;18.60;99.90
3842;DHT22;1936;47.074;15.336;2022-08-18T01:57:01;18.70;99.90
3842;DHT22;1936;47.074;15.336;2022-08-18T01:59:05;18.80;99.90
3842;DHT22;1936;47.074;15.336;2022-08-18T02:01:16;18.80;99.90
3842;DHT22;1936;47.074;15.336;2022-08-18T02:03:20;18.90;99.90
3842;DHT22;1936;47.074;15.336;2022-08-18T02:05:46;18.90;99.90
3842;DHT22;1936;47.074;15.336;2022-08-18T02:07:52;18.90;99.90
3842;DHT22;1936;47.074;15.336;2022-08-18T02:09:55;18.90;99.90
3842;DHT22;1936;47.074;15.336;2022-08-18T02:12:03;19.00;99.90
3842;DHT22;1936;47.074;15.336;2022-08-18T02:14:06;19.00;99.90
3842;DHT22;1936;47.074;15.336;2022-08-18T02:16:10;19.00;99.90
3842;DHT22;1936;47.074;15.336;2022-08-18T02:18:14;18.90;99.90
3842;DHT22;1936;47.074;15.336;2022-08-18T02:20:41;19.00;99.90
3842;DHT22;1936;47.074;15.336;2022-08-18T02:22:48;19.00;99.90
3842;DHT22;1936;47.074;15.336;2022-08-18T02:24:52;19.00;99.90
3842;DHT22;1936;47.074;15.336;2022-08-18T02:26:56;19.10;99.90
3842;DHT22;1936;47.074;15.336;2022-08-18T02:29:01;19.30;99.90
3842;DHT22;1936;47.074;15.336;2022-08-18T02:31:07;19.50;99.90
3842;DHT22;1936;47.074;15.336;2022-08-18T02:33:12;19.70;99.90
3842;DHT22;1936;47.074;15.336;2022-08-18T02:35:16;19.90;99.90
3842;DHT22;1936;47.074;15.336;2022-08-18T02:37:20;19.80;99.90
3842;DHT22;1936;47.074;15.336;2022-08-18T02:41:29;20.80;99.90
3842;DHT22;1936;47.074;15.336;2022-08-18T02:43:34;19.00;99.90
3842;DHT22;1936;47.074;15.336;2022-08-18T02:45:43;18.90;99.90
3842;DHT22;1936;47.074;15.336;2022-08-18T02:48:01;18.70;99.90
3842;DHT22;1936;47.074;15.336;2022-08-18T02:52:11;18.50;99.90
3842;DHT22;1936;47.074;15.336;2022-08-18T02:54:16;18.40;99.90
3842;DHT22;1936;47.074;15.336;2022-08-18T02:56:23;18.40;99.90
3842;DHT22;1936;47.074;15.336;2022-08-18T02:58:42;18.30;99.90
3842;DHT22;1936;47.074;15.336;2022-08-18T03:00:48;18.20;99.90
3842;DHT22;1936;47.074;15.336;2022-08-18T03:02:53;18.20;99.90
3842;DHT22;1936;47.074;15.336;2022-08-18T03:04:58;18.20;99.90
3842;DHT22;1936;47.074;15.336;2022-08-18T03:07:04;18.10;99.90
3842;DHT22;1936;47.074;15.336;2022-08-18T03:09:12;18.00;99.90
3842;DHT22;1936;47.074;15.336;2022-08-18T03:11:16;18.00;99.90
3842;DHT22;1936;47.074;15.336;2022-08-18T03:13:21;17.90;99.90
3842;DHT22;1936;47.074;15.336;2022-08-18T03:15:24;17.90;99.90
3842;DHT22;1936;47.074;15.336;2022-08-18T03:17:34;17.80;99.90
3842;DHT22;1936;47.074;15.336;2022-08-18T03:19:39;17.70;99.90
3842;DHT22;1936;47.074;15.336;2022-08-18T03:21:50;17.60;99.90
3842;DHT22;1936;47.074;15.336;2022-08-18T03:23:59;17.50;99.90
3842;DHT22;1936;47.074;15.336;2022-08-18T03:26:11;17.40;99.90
3842;DHT22;1936;47.074;15.336;2022-08-18T03:28:16;17.30;99.90
3842;DHT22;1936;47.074;15.336;2022-08-18T03:30:20;17.30;99.90
3842;DHT22;1936;47.074;15.336;2022-08-18T03:32:24;17.20;99.90
3842;DHT22;1936;47.074;15.336;2022-08-18T03:34:31;17.20;99.90
3842;DHT22;1936;47.074;15.336;2022-08-18T03:36:35;17.20;99.90
3842;DHT22;1936;47.074;15.336;2022-08-18T03:38:39;17.20;99.90
3842;DHT22;1936;47.074;15.336;2022-08-18T03:42:54;17.30;99.90
3842;DHT22;1936;47.074;15.336;2022-08-18T03:44:58;17.30;99.90
3842;DHT22;1936;47.074;15.336;2022-08-18T03:47:13;17.30;99.90
3842;DHT22;1936;47.074;15.336;2022-08-18T03:49:19;17.40;99.90
3842;DHT22;1936;47.074;15.336;2022-08-18T03:51:28;17.40;99.90
3842;DHT22;1936;47.074;15.336;2022-08-18T03:53:34;17.60;99.90
3842;DHT22;1936;47.074;15.336;2022-08-18T03:55:39;17.50;99.90
3842;DHT22;1936;47.074;15.336;2022-08-18T03:57:44;17.50;99.90
3842;DHT22;1936;47.074;15.336;2022-08-18T03:59:48;17.60;99.90
3842;DHT22;1936;47.074;15.336;2022-08-18T04:01:53;17.40;99.90
3842;DHT22;1936;47.074;15.336;2022-08-18T04:03:59;17.30;99.90
3842;DHT22;1936;47.074;15.336;2022-08-18T04:06:04;17.20;99.90
3842;DHT22;1936;47.074;15.336;2022-08-18T04:08:14;17.20;99.90
3842;DHT22;1936;47.074;15.336;2022-08-18T04:10:36;17.20;99.90
3842;DHT22;1936;47.074;15.336;2022-08-18T04:12:42;17.10;99.90
3842;DHT22;1936;47.074;15.336;2022-08-18T04:14:47;17.10;99.90
3842;DHT22;1936;47.074;15.336;2022-08-18T04:18:55;17.10;99.90
3842;DHT22;1936;47.074;15.336;2022-08-18T04:21:01;17.10;99.90
3842;DHT22;1936;47.074;15.336;2022-08-18T04:23:05;17.10;99.90
3842;DHT22;1936;47.074;15.336;2022-08-18T04:25:11;17.10;99.90
3842;DHT22;1936;47.074;15.336;2022-08-18T04:27:16;17.00;99.90
3842;DHT22;1936;47.074;15.336;2022-08-18T04:29:21;17.10;99.90
3842;DHT22;1936;47.074;15.336;2022-08-18T04:31:25;17.30;99.90
3842;DHT22;1936;47.074;15.336;2022-08-18T04:33:32;17.30;99.90
3842;DHT22;1936;47.074;15.336;2022-08-18T04:35:35;17.30;99.90
3842;DHT22;1936;47.074;15.336;2022-08-18T04:37:43;17.30;99.90
3842;DHT22;1936;47.074;15.336;2022-08-18T04:39:50;17.30;99.90
3842;DHT22;1936;47.074;15.336;2022-08-18T04:41:55;17.30;99.90
3842;DHT22;1936;47.074;15.336;2022-08-18T04:44:03;17.40;99.90
3842;DHT22;1936;47.074;15.336;2022-08-18T04:46:09;17.40;99.90
3842;DHT22;1936;47.074;15.336;2022-08-18T04:48:13;17.40;99.90
3842;DHT22;1936;47.074;15.336;2022-08-18T04:50:19;17.40;99.90
3842;DHT22;1936;47.074;15.336;2022-08-18T04:52:22;17.40;99.90
3842;DHT22;1936;47.074;15.336;2022-08-18T04:54:43;17.40;99.90
3842;DHT22;1936;47.074;15.336;2022-08-18T04:56:47;17.50;99.90
3842;DHT22;1936;47.074;15.336;2022-08-18T04:58:55;17.50;99.90
3842;DHT22;1936;47.074;15.336;2022-08-18T05:01:00;17.60;99.90
3842;DHT22;1936;47.074;15.336;2022-08-18T05:03:04;17.70;99.90
3842;DHT22;1936;47.074;15.336;2022-08-18T05:05:10;17.70;99.90
3842;DHT22;1936;47.074;15.336;2022-08-18T05:07:16;17.80;99.90
3842;DHT22;1936;47.074;15.336;2022-08-18T05:09:21;17.90;99.90
3842;DHT22;1936;47.074;15.336;2022-08-18T05:11:30;18.00;99.90
3842;DHT22;1936;47.074;15.336;2022-08-18T05:13:35;18.20;99.90
3842;DHT22;1936;47.074;15.336;2022-08-18T05:15:43;18.30;99.90
3842;DHT22;1936;47.074;15.336;2022-08-18T05:18:07;18.40;99.90
3842;DHT22;1936;47.074;15.336;2022-08-18T05:20:14;18.60;99.90
3842;DHT22;1936;47.074;15.336;2022-08-18T05:22:19;18.70;99.90
3842;DHT22;1936;47.074;15.336;2022-08-18T05:24:30;18.80;99.90
3842;DHT22;1936;47.074;15.336;2022-08-18T05:26:41;19.00;99.90
3842;DHT22;1936;47.074;15.336;2022-08-18T05:28:46;19.30;99.90
3842;DHT22;1936;47.074;15.336;2022-08-18T05:31:08;19.50;99.90
3842;DHT22;1936;47.074;15.336;2022-08-18T05:33:15;19.60;99.90
3842;DHT22;1936;47.074;15.336;2022-08-18T05:35:25;19.90;99.90
3842;DHT22;1936;47.074;15.336;2022-08-18T05:37:37;20.10;99.90
3842;DHT22;1936;47.074;15.336;2022-08-18T05:39:52;20.30;99.90
3842;DHT22;1936;47.074;15.336;2022-08-18T05:42:02;20.50;99.90
3842;DHT22;1936;47.074;15.336;2022-08-18T05:44:12;20.70;99.90
3842;DHT22;1936;47.074;15.336;2022-08-18T05:46:19;20.90;99.90
3842;DHT22;1936;47.074;15.336;2022-08-18T05:48:24;21.10;99.90
3842;DHT22;1936;47.074;15.336;2022-08-18T05:50:31;21.60;99.90
3842;DHT22;1936;47.074;15.336;2022-08-18T05:52:39;21.90;99.90
3842;DHT22;1936;47.074;15.336;2022-08-18T05:54:49;22.20;99.90
3842;DHT22;1936;47.074;15.336;2022-08-18T05:57:16;22.90;99.90
3842;DHT22;1936;47.074;15.336;2022-08-18T05:59:31;23.20;99.90
3842;DHT22;1936;47.074;15.336;2022-08-18T06:01:40;23.60;99.90
3842;DHT22;1936;47.074;15.336;2022-08-18T06:03:48;23.80;99.90
3842;DHT22;1936;47.074;15.336;2022-08-18T06:05:54;24.20;99.90
3842;DHT22;1936;47.074;15.336;2022-08-18T06:08:03;24.70;99.90
3842;DHT22;1936;47.074;15.336;2022-08-18T06:10:14;24.70;99.90
3842;DHT22;1936;47.074;15.336;2022-08-18T06:12:26;24.60;99.90
3842;DHT22;1936;47.074;15.336;2022-08-18T06:14:41;24.80;99.90
3842;DHT22;1936;47.074;15.336;2022-08-18T06:16:53;24.90;99.90
3842;DHT22;1936;47.074;15.336;2022-08-18T06:19:03;25.00;99.90
3842;DHT22;1936;47.074;15.336;2022-08-18T06:21:25;25.10;99.90
3842;DHT22;1936;47.074;15.336;2022-08-18T06:23:50;25.30;99.90
3842;DHT22;1936;47.074;15.336;2022-08-18T06:26:06;25.80;99.50
3842;DHT22;1936;47.074;15.336;2022-08-18T06:28:14;26.10;99.00
3842;DHT22;1936;47.074;15.336;2022-08-18T06:30:22;26.30;98.40
3842;DHT22;1936;47.074;15.336;2022-08-18T06:32:38;26.50;98.50
3842;DHT22;1936;47.074;15.336;2022-08-18T06:35:02;26.80;98.10
3842;DHT22;1936;47.074;15.336;2022-08-18T06:37:15;27.10;97.00
3842;DHT22;1936;47.074;15.336;2022-08-18T06:39:28;27.70;95.60
3842;DHT22;1936;47.074;15.336;2022-08-18T06:41:35;27.80;95.10
3842;DHT22;1936;47.074;15.336;2022-08-18T06:43:53;28.10;94.30
3842;DHT22;1936;47.074;15.336;2022-08-18T06:46:00;28.60;92.20
3842;DHT22;1936;47.074;15.336;2022-08-18T06:48:12;29.00;93.20
3842;DHT22;1936;47.074;15.336;2022-08-18T06:50:24;29.10;91.30
3842;DHT22;1936;47.074;15.336;2022-08-18T06:52:33;29.40;91.60
3842;DHT22;1936;47.074;15.336;2022-08-18T06:54:42;29.50;89.20
3842;DHT22;1936;47.074;15.336;2022-08-18T06:56:56;29.50;87.70
3842;DHT22;1936;47.074;15.336;2022-08-18T06:59:19;29.70;81.90
3842;DHT22;1936;47.074;15.336;2022-08-18T07:01:24;29.80;80.10
3842;DHT22;1936;47.074;15.336;2022-08-18T07:03:48;29.80;77.70
3842;DHT22;1936;47.074;15.336;2022-08-18T07:05:59;29.60;76.50
3842;DHT22;1936;47.074;15.336;2022-08-18T07:12:33;31.30;94.40
3842;DHT22;1936;47.074;15.336;2022-08-18T07:19:07;31.40;72.90
3842;DHT22;1936;47.074;15.336;2022-08-18T07:21:24;32.80;62.90
3842;DHT22;1936;47.074;15.336;2022-08-18T07:23:33;33.40;59.10
3842;DHT22;1936;47.074;15.336;2022-08-18T07:25:41;33.50;58.80
3842;DHT22;1936;47.074;15.336;2022-08-18T07:27:49;33.60;63.10
3842;DHT22;1936;47.074;15.336;2022-08-18T07:30:04;34.70;54.60
3842;DHT22;1936;47.074;15.336;2022-08-18T07:32:13;34.60;55.20
3842;DHT22;1936;47.074;15.336;2022-08-18T07:34:26;34.40;57.70
3842;DHT22;1936;47.074;15.336;2022-08-18T07:36:42;34.90;53.90
3842;DHT22;1936;47.074;15.336;2022-08-18T07:38:51;35.00;51.90
3842;DHT22;1936;47.074;15.336;2022-08-18T07:43:11;34.20;52.80
3842;DHT22;1936;47.074;15.336;2022-08-18T07:45:22;34.10;51.40
3842;DHT22;1936;47.074;15.336;2022-08-18T07:47:48;33.70;51.40
3842;DHT22;1936;47.074;15.336;2022-08-18T07:57:04;36.70;50.60
3842;DHT22;1936;47.074;15.336;2022-08-18T08:01:29;38.10;48.80
3842;DHT22;1936;47.074;15.336;2022-08-18T08:03:45;38.60;48.40
3842;DHT22;1936;47.074;15.336;2022-08-18T08:10:23;39.20;42.90
3842;DHT22;1936;47.074;15.336;2022-08-18T08:16:48;39.60;39.70
3842;DHT22;1936;47.074;15.336;2022-08-18T08:18:58;39.70;45.20
3842;DHT22;1936;47.074;15.336;2022-08-18T08:21:18;40.40;41.20
3842;DHT22;1936;47.074;15.336;2022-08-18T08:23:27;40.30;41.10
3842;DHT22;1936;47.074;15.336;2022-08-18T08:25:40;40.70;38.50
3842;DHT22;1936;47.074;15.336;2022-08-18T08:34:20;41.60;35.90
3842;DHT22;1936;47.074;15.336;2022-08-18T08:38:41;41.60;39.80
3842;DHT22;1936;47.074;15.336;2022-08-18T08:47:19;41.40;35.60
3842;DHT22;1936;47.074;15.336;2022-08-18T08:49:34;40.90;36.10
3842;DHT22;1936;47.074;15.336;2022-08-18T08:51:46;41.00;36.30
3842;DHT22;1936;47.074;15.336;2022-08-18T08:56:07;40.80;36.40
3842;DHT22;1936;47.074;15.336;2022-08-18T09:00:26;40.90;37.50
3842;DHT22;1936;47.074;15.336;2022-08-18T09:02:48;40.70;34.80
3842;DHT22;1936;47.074;15.336;2022-08-18T09:05:03;41.10;35.90
3842;DHT22;1936;47.074;15.336;2022-08-18T09:21:18;41.60;35.90
3842;DHT22;1936;47.074;15.336;2022-08-18T09:37:11;43.70;33.90
3842;DHT22;1936;47.074;15.336;2022-08-18T09:46:50;43.80;33.40
3842;DHT22;1936;47.074;15.336;2022-08-18T09:53:55;43.60;31.90
3842;DHT22;1936;47.074;15.336;2022-08-18T10:01:20;44.60;31.60
3842;DHT22;1936;47.074;15.336;2022-08-18T10:06:05;43.20;31.30
3842;DHT22;1936;47.074;15.336;2022-08-18T10:11:49;42.30;35.70
3842;DHT22;1936;47.074;15.336;2022-08-18T10:27:50;43.50;32.40
3842;DHT22;1936;47.074;15.336;2022-08-18T12:33:21;40.20;33.10
3842;DHT22;1936;47.074;15.336;2022-08-18T12:35:35;39.80;34.80
3842;DHT22;1936;47.074;15.336;2022-08-18T12:37:41;39.50;37.80
3842;DHT22;1936;47.074;15.336;2022-08-18T12:40:07;39.30;36.30
3842;DHT22;1936;47.074;15.336;2022-08-18T12:42:13;39.00;36.90
3842;DHT22;1936;47.074;15.336;2022-08-18T12:44:17;38.80;37.50
3842;DHT22;1936;47.074;15.336;2022-08-18T12:46:29;38.80;36.40
3842;DHT22;1936;47.074;15.336;2022-08-18T12:48:35;39.00;36.80
3842;DHT22;1936;47.074;15.336;2022-08-18T12:50:42;38.80;36.20
3842;DHT22;1936;47.074;15.336;2022-08-18T12:53:02;38.60;35.90
3842;DHT22;1936;47.074;15.336;2022-08-18T12:55:07;38.80;38.40
3842;DHT22;1936;47.074;15.336;2022-08-18T12:57:25;38.80;36.20
3842;DHT22;1936;47.074;15.336;2022-08-18T12:59:50;38.50;37.90
3842;DHT22;1936;47.074;15.336;2022-08-18T13:01:54;38.20;37.20
3842;DHT22;1936;47.074;15.336;2022-08-18T13:04:00;37.80;40.70
3842;DHT22;1936;47.074;15.336;2022-08-18T13:06:22;37.20;37.20
3842;DHT22;1936;47.074;15.336;2022-08-18T13:08:30;36.70;38.40
3842;DHT22;1936;47.074;15.336;2022-08-18T13:10:41;36.60;39.50
3842;DHT22;1936;47.074;15.336;2022-08-18T13:12:52;36.10;39.00
3842;DHT22;1936;47.074;15.336;2022-08-18T13:14:57;35.80;41.60
3842;DHT22;1936;47.074;15.336;2022-08-18T13:17:02;35.80;41.40
3842;DHT22;1936;47.074;15.336;2022-08-18T13:19:12;35.70;41.60
3842;DHT22;1936;47.074;15.336;2022-08-18T13:21:16;35.70;44.00
3842;DHT22;1936;47.074;15.336;2022-08-18T13:23:22;35.30;41.00
3842;DHT22;1936;47.074;15.336;2022-08-18T13:25:28;35.00;43.00
3842;DHT22;1936;47.074;15.336;2022-08-18T13:27:40;34.80;44.40
3842;DHT22;1936;47.074;15.336;2022-08-18T13:29:46;34.50;43.90
3842;DHT22;1936;47.074;15.336;2022-08-18T13:31:52;34.20;43.10
3842;DHT22;1936;47.074;15.336;2022-08-18T13:34:03;33.90;43.90
3842;DHT22;1936;47.074;15.336;2022-08-18T13:36:15;34.00;44.20
3842;DHT22;1936;47.074;15.336;2022-08-18T13:38:24;33.90;44.20
3842;DHT22;1936;47.074;15.336;2022-08-18T13:40:42;34.00;44.20
3842;DHT22;1936;47.074;15.336;2022-08-18T13:42:48;34.10;45.10
3842;DHT22;1936;47.074;15.336;2022-08-18T13:44:52;34.80;46.20
3842;DHT22;1936;47.074;15.336;2022-08-18T13:46:58;34.80;43.30
3842;DHT22;1936;47.074;15.336;2022-08-18T13:49:02;34.90;44.90
3842;DHT22;1936;47.074;15.336;2022-08-18T13:51:08;34.60;43.40
3842;DHT22;1936;47.074;15.336;2022-08-18T13:53:14;34.30;45.10
3842;DHT22;1936;47.074;15.336;2022-08-18T13:55:22;33.90;44.00
3842;DHT22;1936;47.074;15.336;2022-08-18T13:57:27;33.50;43.30
3842;DHT22;1936;47.074;15.336;2022-08-18T13:59:33;33.00;44.70
3842;DHT22;1936;47.074;15.336;2022-08-18T14:01:37;32.70;44.30
3842;DHT22;1936;47.074;15.336;2022-08-18T14:03:53;32.30;46.00
3842;DHT22;1936;47.074;15.336;2022-08-18T14:05:57;31.00;43.20
3842;DHT22;1936;47.074;15.336;2022-08-18T14:08:07;30.00;45.10
3842;DHT22;1936;47.074;15.336;2022-08-18T14:10:22;28.90;48.60
3842;DHT22;1936;47.074;15.336;2022-08-18T14:12:26;27.20;54.30
3842;DHT22;1936;47.074;15.336;2022-08-18T14:14:34;25.90;61.30
3842;DHT22;1936;47.074;15.336;2022-08-18T14:18:46;23.20;76.50
3842;DHT22;1936;47.074;15.336;2022-08-18T14:23:32;21.10;99.90
3842;DHT22;1936;47.074;15.336;2022-08-18T14:25:55;19.90;99.90
3842;DHT22;1936;47.074;15.336;2022-08-18T14:28:18;19.80;99.90
3842;DHT22;1936;47.074;15.336;2022-08-18T14:30:26;19.50;99.90
3842;DHT22;1936;47.074;15.336;2022-08-18T14:34:37;19.40;99.90
3842;DHT22;1936;47.074;15.336;2022-08-18T14:36:51;19.40;99.90
3842;DHT22;1936;47.074;15.336;2022-08-18T14:38:56;19.40;99.90
3842;DHT22;1936;47.074;15.336;2022-08-18T14:43:08;19.40;99.90
3842;DHT22;1936;47.074;15.336;2022-08-18T14:45:15;19.50;99.90
3842;DHT22;1936;47.074;15.336;2022-08-18T14:47:36;19.50;99.90
3842;DHT22;1936;47.074;15.336;2022-08-18T14:49:41;19.40;99.90
3842;DHT22;1936;47.074;15.336;2022-08-18T14:51:49;19.50;99.90
3842;DHT22;1936;47.074;15.336;2022-08-18T14:53:57;19.50;99.90
3842;DHT22;1936;47.074;15.336;2022-08-18T14:56:04;19.40;99.90
3842;DHT22;1936;47.074;15.336;2022-08-18T14:58:10;19.50;99.90
3842;DHT22;1936;47.074;15.336;2022-08-18T15:00:16;19.60;99.90
3842;DHT22;1936;47.074;15.336;2022-08-18T15:02:23;19.60;99.90
3842;DHT22;1936;47.074;15.336;2022-08-18T15:04:27;19.60;99.90
3842;DHT22;1936;47.074;15.336;2022-08-18T15:06:31;19.60;99.90
3842;DHT22;1936;47.074;15.336;2022-08-18T15:08:35;19.70;99.90
3842;DHT22;1936;47.074;15.336;2022-08-18T15:10:45;19.60;99.90
3842;DHT22;1936;47.074;15.336;2022-08-18T15:12:51;19.70;99.90
3842;DHT22;1936;47.074;15.336;2022-08-18T15:14:55;19.90;99.90
3842;DHT22;1936;47.074;15.336;2022-08-18T15:17:03;20.00;99.90
3842;DHT22;1936;47.074;15.336;2022-08-18T15:21:42;20.00;99.90
3842;DHT22;1936;47.074;15.336;2022-08-18T15:24:03;20.20;99.90
3842;DHT22;1936;47.074;15.336;2022-08-18T15:26:26;20.20;99.90
3842;DHT22;1936;47.074;15.336;2022-08-18T15:28:32;20.20;99.90
3842;DHT22;1936;47.074;15.336;2022-08-18T15:30:36;20.20;99.90
3842;DHT22;1936;47.074;15.336;2022-08-18T15:32:42;20.30;99.90
3842;DHT22;1936;47.074;15.336;2022-08-18T15:34:47;20.40;99.90
3842;DHT22;1936;47.074;15.336;2022-08-18T15:36:52;20.50;99.90
3842;DHT22;1936;47.074;15.336;2022-08-18T15:38:57;20.60;99.90
3842;DHT22;1936;47.074;15.336;2022-08-18T15:41:06;20.70;99.90
3842;DHT22;1936;47.074;15.336;2022-08-18T15:43:13;20.90;99.90
3842;DHT22;1936;47.074;15.336;2022-08-18T15:45:24;20.70;99.90
3842;DHT22;1936;47.074;15.336;2022-08-18T15:47:36;20.80;99.90
3842;DHT22;1936;47.074;15.336;2022-08-18T15:49:41;20.90;99.90
3842;DHT22;1936;47.074;15.336;2022-08-18T15:51:45;21.00;99.90
3842;DHT22;1936;47.074;15.336;2022-08-18T15:53:50;20.80;99.90
3842;DHT22;1936;47.074;15.336;2022-08-18T15:55:57;21.00;99.90
3842;DHT22;1936;47.074;15.336;2022-08-18T15:58:05;21.20;99.90
3842;DHT22;1936;47.074;15.336;2022-08-18T16:00:14;21.00;99.90
3842;DHT22;1936;47.074;15.336;2022-08-18T16:02:22;21.00;99.90
3842;DHT22;1936;47.074;15.336;2022-08-18T16:04:27;21.00;99.90
3842;DHT22;1936;47.074;15.336;2022-08-18T16:06:33;21.00;99.90
3842;DHT22;1936;47.074;15.336;2022-08-18T16:08:41;20.90;99.90
3842;DHT22;1936;47.074;15.336;2022-08-18T16:10:45;21.00;99.90
3842;DHT22;1936;47.074;15.336;2022-08-18T16:12:49;21.10;99.90
3842;DHT22;1936;47.074;15.336;2022-08-18T16:14:53;21.20;99.90
3842;DHT22;1936;47.074;15.336;2022-08-18T16:16:57;21.20;99.90
3842;DHT22;1936;47.074;15.336;2022-08-18T16:19:14;21.30;99.90
3842;DHT22;1936;47.074;15.336;2022-08-18T16:21:21;21.30;99.90
3842;DHT22;1936;47.074;15.336;2022-08-18T16:23:25;21.20;99.90
3842;DHT22;1936;47.074;15.336;2022-08-18T16:25:31;21.30;99.90
3842;DHT22;1936;47.074;15.336;2022-08-18T16:27:35;21.20;99.90
3842;DHT22;1936;47.074;15.336;2022-08-18T16:29:42;21.20;99.90
3842;DHT22;1936;47.074;15.336;2022-08-18T16:31:46;21.20;99.90
3842;DHT22;1936;47.074;15.336;2022-08-18T16:33:51;21.10;99.90
3842;DHT22;1936;47.074;15.336;2022-08-18T16:36:01;21.00;99.90
3842;DHT22;1936;47.074;15.336;2022-08-18T16:38:06;20.90;99.90
3842;DHT22;1936;47.074;15.336;2022-08-18T16:40:11;20.90;99.90
3842;DHT22;1936;47.074;15.336;2022-08-18T16:42:15;20.60;99.90
3842;DHT22;1936;47.074;15.336;2022-08-18T16:44:20;20.50;99.90
3842;DHT22;1936;47.074;15.336;2022-08-18T16:46:27;20.60;99.90
3842;DHT22;1936;47.074;15.336;2022-08-18T16:48:31;20.50;99.90
3842;DHT22;1936;47.074;15.336;2022-08-18T16:50:36;20.50;99.90
3842;DHT22;1936;47.074;15.336;2022-08-18T16:52:44;20.60;99.90
3842;DHT22;1936;47.074;15.336;2022-08-18T16:54:48;20.70;99.90
3842;DHT22;1936;47.074;15.336;2022-08-18T16:56:58;20.70;99.90
3842;DHT22;1936;47.074;15.336;2022-08-18T16:59:03;20.60;99.90
3842;DHT22;1936;47.074;15.336;2022-08-18T17:01:24;20.60;99.90
3842;DHT22;1936;47.074;15.336;2022-08-18T17:03:53;20.40;99.90
3842;DHT22;1936;47.074;15.336;2022-08-18T17:06:21;20.40;99.90
3842;DHT22;1936;47.074;15.336;2022-08-18T17:08:31;20.30;99.90
3842;DHT22;1936;47.074;15.336;2022-08-18T17:10:35;20.30;99.90
3842;DHT22;1936;47.074;15.336;2022-08-18T17:12:41;20.20;99.90
3842;DHT22;1936;47.074;15.336;2022-08-18T17:14:45;19.90;99.90
3842;DHT22;1936;47.074;15.336;2022-08-18T17:18:58;19.90;99.90
3842;DHT22;1936;47.074;15.336;2022-08-18T17:21:04;19.70;99.90
3842;DHT22;1936;47.074;15.336;2022-08-18T17:23:09;19.60;99.90
3842;DHT22;1936;47.074;15.336;2022-08-18T17:25:27;19.50;99.90
3842;DHT22;1936;47.074;15.336;2022-08-18T17:27:33;19.60;99.90
3842;DHT22;1936;47.074;15.336;2022-08-18T17:29:43;19.50;99.90
3842;DHT22;1936;47.074;15.336;2022-08-18T17:31:53;19.70;99.90
3842;DHT22;1936;47.074;15.336;2022-08-18T17:34:04;19.70;99.90
3842;DHT22;1936;47.074;15.336;2022-08-18T17:36:15;19.60;99.90
3842;DHT22;1936;47.074;15.336;2022-08-18T17:38:25;19.60;99.90
3842;DHT22;1936;47.074;15.336;2022-08-18T17:40:37;19.60;99.90
3842;DHT22;1936;47.074;15.336;2022-08-18T17:42:44;19.50;99.90
3842;DHT22;1936;47.074;15.336;2022-08-18T17:44:55;19.50;99.90
3842;DHT22;1936;47.074;15.336;2022-08-18T17:47:02;19.50;99.90
3842;DHT22;1936;47.074;15.336;2022-08-18T17:49:11;19.40;99.90
3842;DHT22;1936;47.074;15.336;2022-08-18T17:51:21;19.20;99.90
3842;DHT22;1936;47.074;15.336;2022-08-18T17:53:36;19.10;99.90
3842;DHT22;1936;47.074;15.336;2022-08-18T17:55:48;19.00;99.90
3842;DHT22;1936;47.074;15.336;2022-08-18T17:58:14;19.00;99.90
3842;DHT22;1936;47.074;15.336;2022-08-18T18:02:26;19.10;99.90
3842;DHT22;1936;47.074;15.336;2022-08-18T18:04:31;19.10;99.90
3842;DHT22;1936;47.074;15.336;2022-08-18T18:06:37;19.00;99.90
3842;DHT22;1936;47.074;15.336;2022-08-18T18:08:52;18.90;99.90
3842;DHT22;1936;47.074;15.336;2022-08-18T18:11:09;18.90;99.90
3842;DHT22;1936;47.074;15.336;2022-08-18T18:13:23;18.90;99.90